createdAt,value
2017-06-24T00:00:05.831Z,61.7
2017-06-24T00:00:21.133Z,61.2
2017-06-24T00:00:36.645Z,61.7
2017-06-24T00:00:52.251Z,61.9
2017-06-24T00:01:07.649Z,62.3
2017-06-24T00:01:23.258Z,62.4
2017-06-24T00:01:38.564Z,62.0
2017-06-24T00:01:53.970Z,62.0
2017-06-24T00:02:09.277Z,61.8
2017-06-24T00:02:24.585Z,61.7
2017-06-24T00:02:39.995Z,62.2
2017-06-24T00:02:55.796Z,61.7
2017-06-24T00:03:11.611Z,62.2
2017-06-24T00:03:27.009Z,62.2
2017-06-24T00:03:42.536Z,62.2
2017-06-24T00:03:58.140Z,62.2
2017-06-24T00:04:13.755Z,62.0
2017-06-24T00:04:29.162Z,61.8
2017-06-24T00:04:44.662Z,62.0
2017-06-24T00:05:00.078Z,62.2
2017-06-24T00:05:15.781Z,62.4
2017-06-24T00:05:31.082Z,62.3
2017-06-24T00:05:46.694Z,62.1
2017-06-24T00:06:02.096Z,62.4
2017-06-24T00:06:17.511Z,62.1
2017-06-24T00:06:32.933Z,62.1
2017-06-24T00:06:48.237Z,62.0
2017-06-24T00:07:03.540Z,62.0
2017-06-24T00:07:18.948Z,62.3
2017-06-24T00:07:34.248Z,62.2
2017-06-24T00:07:49.655Z,62.4
2017-06-24T00:08:05.165Z,62.2
2017-06-24T00:08:20.569Z,61.4
2017-06-24T00:08:35.893Z,62.1
2017-06-24T00:08:51.500Z,62.2
2017-06-24T00:09:06.914Z,62.1
2017-06-24T00:09:22.529Z,62.3
2017-06-24T00:09:37.932Z,61.9
2017-06-24T00:09:53.442Z,62.1
2017-06-24T00:10:09.148Z,62.0
2017-06-24T00:10:24.545Z,62.1
2017-06-24T00:10:40.058Z,62.4
2017-06-24T00:10:55.561Z,62.3
2017-06-24T00:11:11.064Z,62.3
2017-06-24T00:11:26.595Z,62.6
2017-06-24T00:11:42.113Z,61.9
2017-06-24T00:11:57.617Z,62.3
2017-06-24T00:12:13.218Z,62.0
2017-06-24T00:12:29.310Z,62.0
2017-06-24T00:12:45.024Z,61.8
2017-06-24T00:13:00.629Z,61.9
2017-06-24T00:13:15.931Z,61.9
2017-06-24T00:13:31.437Z,62.1
2017-06-24T00:13:47.150Z,62.0
2017-06-24T00:14:02.955Z,62.0
2017-06-24T00:14:18.660Z,61.8
2017-06-24T00:14:33.961Z,61.8
2017-06-24T00:14:49.462Z,62.0
2017-06-24T00:15:05.192Z,61.9
2017-06-24T00:15:20.894Z,62.1
2017-06-24T00:15:36.312Z,61.7
2017-06-24T00:15:51.913Z,61.5
2017-06-24T00:16:07.451Z,61.6
2017-06-24T00:16:23.158Z,61.6
2017-06-24T00:16:38.566Z,61.4
2017-06-24T00:16:53.877Z,61.4
2017-06-24T00:17:09.605Z,61.4
2017-06-24T00:17:25.210Z,61.4
2017-06-24T00:17:40.815Z,61.3
2017-06-24T00:17:56.717Z,61.3
2017-06-24T00:18:12.339Z,61.5
2017-06-24T00:18:27.947Z,61.4
2017-06-24T00:18:43.550Z,61.5
2017-06-24T00:18:58.748Z,61.0
2017-06-24T00:19:14.754Z,61.0
2017-06-24T00:19:30.270Z,61.0
2017-06-24T00:19:45.794Z,61.0
2017-06-24T00:20:01.797Z,60.8
2017-06-24T00:20:17.220Z,61.0
2017-06-24T00:20:32.609Z,61.0
2017-06-24T00:20:47.912Z,61.4
2017-06-24T00:21:03.211Z,61.3
2017-06-24T00:21:19.008Z,61.4
2017-06-24T00:21:34.713Z,61.5
2017-06-24T00:21:50.318Z,61.9
2017-06-24T00:22:05.526Z,61.7
2017-06-24T00:22:20.932Z,61.5
2017-06-24T00:22:36.553Z,61.5
2017-06-24T00:22:51.752Z,61.6
2017-06-24T00:23:07.162Z,61.5
2017-06-24T00:23:22.465Z,61.5
2017-06-24T00:23:37.976Z,61.6
2017-06-24T00:23:53.486Z,61.4
2017-06-24T00:24:08.785Z,61.5
2017-06-24T00:24:24.387Z,61.6
2017-06-24T00:24:39.789Z,61.5
2017-06-24T00:24:55.589Z,61.6
2017-06-24T00:25:10.991Z,61.5
2017-06-24T00:25:26.490Z,61.4
2017-06-24T00:25:41.994Z,61.5
2017-06-24T00:25:57.504Z,61.5
2017-06-24T00:26:13.210Z,61.4
2017-06-24T00:26:28.735Z,61.2
2017-06-24T00:26:44.138Z,61.9
2017-06-24T00:26:59.437Z,61.5
2017-06-24T00:27:14.757Z,61.6
2017-06-24T00:27:30.244Z,61.6
2017-06-24T00:27:45.991Z,62.1
2017-06-24T00:28:01.676Z,61.7
2017-06-24T00:28:17.089Z,61.6
2017-06-24T00:28:32.500Z,61.4
2017-06-24T00:28:47.801Z,62.0
2017-06-24T00:29:03.625Z,62.0
2017-06-24T00:29:19.332Z,61.6
2017-06-24T00:29:34.938Z,61.4
2017-06-24T00:29:50.543Z,62.1
2017-06-24T00:30:05.946Z,61.9
2017-06-24T00:30:21.661Z,62.2
2017-06-24T00:30:37.466Z,61.7
2017-06-24T00:30:52.770Z,62.0
2017-06-24T00:31:08.169Z,62.3
2017-06-24T00:31:23.578Z,62.5
2017-06-24T00:31:39.371Z,62.4
2017-06-24T00:31:54.875Z,62.4
2017-06-24T00:32:10.285Z,62.5
2017-06-24T00:32:25.685Z,62.0
2017-06-24T00:32:41.185Z,63.1
2017-06-24T00:32:56.589Z,63.0
2017-06-24T00:33:12.098Z,63.0
2017-06-24T00:33:27.636Z,62.8
2017-06-24T00:33:43.032Z,62.7
2017-06-24T00:33:58.433Z,62.7
2017-06-24T00:34:13.745Z,62.5
2017-06-24T00:34:29.348Z,63.3
2017-06-24T00:34:44.743Z,63.3
2017-06-24T00:35:00.644Z,63.0
2017-06-24T00:35:16.250Z,63.3
2017-06-24T00:35:31.759Z,63.1
2017-06-24T00:35:47.465Z,62.9
2017-06-24T00:36:02.879Z,63.2
2017-06-24T00:36:18.220Z,63.1
2017-06-24T00:36:33.525Z,63.5
2017-06-24T00:36:49.044Z,63.3
2017-06-24T00:37:04.648Z,63.6
2017-06-24T00:37:20.146Z,63.3
2017-06-24T00:37:35.665Z,63.4
2017-06-24T00:37:50.868Z,63.6
2017-06-24T00:38:06.370Z,63.2
2017-06-24T00:38:21.782Z,63.3
2017-06-24T00:38:37.184Z,63.5
2017-06-24T00:38:52.589Z,63.7
2017-06-24T00:39:07.994Z,63.6
2017-06-24T00:39:23.505Z,63.5
2017-06-24T00:39:38.919Z,63.4
2017-06-24T00:39:54.327Z,63.4
2017-06-24T00:40:09.752Z,63.6
2017-06-24T00:40:25.363Z,63.5
2017-06-24T00:40:40.670Z,63.6
2017-06-24T00:40:56.382Z,63.3
2017-06-24T00:41:11.690Z,63.6
2017-06-24T00:41:27.293Z,64.2
2017-06-24T00:41:42.803Z,63.8
2017-06-24T00:41:58.417Z,63.5
2017-06-24T00:42:14.124Z,63.5
2017-06-24T00:42:29.751Z,63.7
2017-06-24T00:42:44.955Z,63.5
2017-06-24T00:43:00.266Z,63.3
2017-06-24T00:43:15.662Z,63.4
2017-06-24T00:43:31.820Z,63.4
2017-06-24T00:43:47.226Z,63.6
2017-06-24T00:44:02.525Z,63.3
2017-06-24T00:44:17.939Z,63.5
2017-06-24T00:44:33.556Z,63.3
2017-06-24T00:44:48.847Z,63.9
2017-06-24T00:45:04.370Z,64.0
2017-06-24T00:45:19.672Z,63.6
2017-06-24T00:45:35.179Z,63.3
2017-06-24T00:45:51.099Z,63.5
2017-06-24T00:46:06.600Z,63.1
2017-06-24T00:46:22.619Z,63.6
2017-06-24T00:46:38.313Z,63.5
2017-06-24T00:46:53.918Z,63.3
2017-06-24T00:47:09.322Z,63.9
2017-06-24T00:47:24.828Z,63.9
2017-06-24T00:47:40.253Z,64.1
2017-06-24T00:47:55.656Z,63.4
2017-06-24T00:48:11.477Z,63.5
2017-06-24T00:48:27.470Z,63.7
2017-06-24T00:48:43.181Z,63.6
2017-06-24T00:48:58.398Z,63.3
2017-06-24T00:49:14.308Z,63.5
2017-06-24T00:49:29.807Z,63.5
2017-06-24T00:49:45.107Z,63.5
2017-06-24T00:50:00.420Z,63.9
2017-06-24T00:50:15.831Z,63.7
2017-06-24T00:50:31.236Z,63.7
2017-06-24T00:50:46.644Z,63.6
2017-06-24T00:51:02.252Z,64.2
2017-06-24T00:51:17.766Z,64.1
2017-06-24T00:51:33.166Z,64.1
2017-06-24T00:51:48.675Z,64.1
2017-06-24T00:52:04.194Z,64.1
2017-06-24T00:52:19.593Z,63.9
2017-06-24T00:52:35.199Z,63.9
2017-06-24T00:52:50.612Z,64.2
2017-06-24T00:53:06.020Z,64.2
2017-06-24T00:53:21.822Z,63.9
2017-06-24T00:53:37.535Z,64.3
2017-06-24T00:53:52.932Z,64.2
2017-06-24T00:54:08.642Z,64.0
2017-06-24T00:54:24.239Z,64.1
2017-06-24T00:54:39.958Z,64.3
2017-06-24T00:54:55.566Z,64.7
2017-06-24T00:55:11.072Z,64.6
2017-06-24T00:55:26.571Z,64.4
2017-06-24T00:55:42.285Z,64.5
2017-06-24T00:55:57.785Z,64.8
2017-06-24T00:56:13.395Z,64.3
2017-06-24T00:56:28.993Z,65.0
2017-06-24T00:56:44.395Z,64.9
2017-06-24T00:57:00.115Z,64.7
2017-06-24T00:57:15.507Z,64.7
2017-06-24T00:57:31.018Z,65.0
2017-06-24T00:57:46.512Z,64.9
2017-06-24T00:58:01.914Z,64.8
2017-06-24T00:58:17.422Z,65.1
2017-06-24T00:58:33.029Z,65.2
2017-06-24T00:58:48.285Z,65.3
2017-06-24T00:59:03.783Z,64.8
2017-06-24T00:59:19.192Z,65.5
2017-06-24T00:59:35.006Z,65.1
2017-06-24T00:59:50.413Z,65.1
2017-06-24T01:00:05.722Z,64.9
2017-06-24T01:00:21.327Z,64.7
2017-06-24T01:00:36.728Z,64.9
2017-06-24T01:00:52.331Z,64.8
2017-06-24T01:01:07.932Z,65.2
2017-06-24T01:01:23.334Z,65.4
2017-06-24T01:01:38.730Z,65.1
2017-06-24T01:01:54.039Z,65.5
2017-06-24T01:02:09.340Z,65.2
2017-06-24T01:02:24.858Z,65.4
2017-06-24T01:02:40.363Z,65.7
2017-06-24T01:02:55.865Z,65.6
2017-06-24T01:03:11.468Z,65.4
2017-06-24T01:03:27.090Z,65.9
2017-06-24T01:03:42.404Z,65.3
2017-06-24T01:03:58.004Z,65.0
2017-06-24T01:04:13.312Z,65.4
2017-06-24T01:04:28.612Z,65.7
2017-06-24T01:04:43.842Z,65.6
2017-06-24T01:04:59.461Z,65.8
2017-06-24T01:05:14.965Z,65.8
2017-06-24T01:05:30.270Z,65.8
2017-06-24T01:05:45.574Z,65.5
2017-06-24T01:06:01.173Z,66.0
2017-06-24T01:06:17.277Z,65.9
2017-06-24T01:06:32.710Z,65.9
2017-06-24T01:06:48.641Z,65.6
2017-06-24T01:07:04.062Z,65.8
2017-06-24T01:07:19.569Z,65.7
2017-06-24T01:07:35.303Z,65.7
2017-06-24T01:07:50.813Z,65.5
2017-06-24T01:08:06.112Z,65.6
2017-06-24T01:08:21.420Z,65.6
2017-06-24T01:08:36.928Z,66.0
2017-06-24T01:08:52.928Z,65.8
2017-06-24T01:09:08.538Z,65.5
2017-06-24T01:09:24.143Z,65.5
2017-06-24T01:09:39.964Z,65.5
2017-06-24T01:09:55.173Z,65.7
2017-06-24T01:10:10.482Z,65.9
2017-06-24T01:10:25.982Z,65.7
2017-06-24T01:10:41.291Z,65.6
2017-06-24T01:10:56.799Z,65.7
2017-06-24T01:11:12.492Z,65.7
2017-06-24T01:11:28.000Z,65.7
2017-06-24T01:11:43.705Z,65.5
2017-06-24T01:11:59.109Z,65.7
2017-06-24T01:12:14.611Z,65.7
2017-06-24T01:12:30.113Z,65.7
2017-06-24T01:12:45.625Z,65.6
2017-06-24T01:13:01.125Z,65.4
2017-06-24T01:13:16.732Z,65.2
2017-06-24T01:13:32.231Z,64.9
2017-06-24T01:13:47.543Z,65.1
2017-06-24T01:14:02.840Z,65.3
2017-06-24T01:14:18.342Z,64.8
2017-06-24T01:14:33.756Z,65.0
2017-06-24T01:14:48.971Z,65.0
2017-06-24T01:15:04.477Z,65.4
2017-06-24T01:15:20.118Z,65.1
2017-06-24T01:15:35.623Z,64.8
2017-06-24T01:15:51.129Z,64.7
2017-06-24T01:16:06.433Z,64.7
2017-06-24T01:16:21.805Z,64.7
2017-06-24T01:16:37.309Z,65.0
2017-06-24T01:16:52.822Z,65.1
2017-06-24T01:17:08.527Z,64.9
2017-06-24T01:17:24.140Z,64.9
2017-06-24T01:17:39.542Z,64.6
2017-06-24T01:17:55.365Z,64.7
2017-06-24T01:18:11.179Z,64.7
2017-06-24T01:18:26.678Z,64.8
2017-06-24T01:18:42.208Z,64.7
2017-06-24T01:18:57.902Z,64.7
2017-06-24T01:19:13.449Z,64.6
2017-06-24T01:19:29.154Z,64.4
2017-06-24T01:19:44.674Z,64.3
2017-06-24T01:20:00.181Z,64.3
2017-06-24T01:20:15.891Z,63.9
2017-06-24T01:20:31.098Z,64.4
2017-06-24T01:20:46.608Z,64.0
2017-06-24T01:21:02.024Z,64.3
2017-06-24T01:21:17.434Z,64.0
2017-06-24T01:21:32.643Z,64.1
2017-06-24T01:21:48.157Z,64.0
2017-06-24T01:22:03.663Z,63.9
2017-06-24T01:22:19.276Z,63.9
2017-06-24T01:22:34.693Z,64.4
2017-06-24T01:22:50.003Z,64.4
2017-06-24T01:23:05.407Z,64.1
2017-06-24T01:23:20.928Z,64.1
2017-06-24T01:23:36.440Z,64.2
2017-06-24T01:23:52.269Z,64.4
2017-06-24T01:24:07.779Z,64.4
2017-06-24T01:24:23.291Z,63.9
2017-06-24T01:24:38.790Z,64.3
2017-06-24T01:24:54.111Z,64.2
2017-06-24T01:25:09.716Z,64.1
2017-06-24T01:25:25.523Z,64.7
2017-06-24T01:25:41.122Z,64.4
2017-06-24T01:25:56.524Z,64.4
2017-06-24T01:26:12.030Z,64.6
2017-06-24T01:26:27.528Z,64.5
2017-06-24T01:26:42.829Z,64.4
2017-06-24T01:26:58.333Z,64.7
2017-06-24T01:27:13.847Z,64.6
2017-06-24T01:27:29.456Z,64.8
2017-06-24T01:27:45.062Z,64.6
2017-06-24T01:28:00.296Z,64.4
2017-06-24T01:28:15.894Z,64.4
2017-06-24T01:28:31.297Z,64.7
2017-06-24T01:28:46.718Z,64.5
2017-06-24T01:29:02.423Z,64.6
2017-06-24T01:29:17.929Z,64.8
2017-06-24T01:29:33.560Z,64.9
2017-06-24T01:29:48.961Z,64.9
2017-06-24T01:30:04.558Z,65.3
2017-06-24T01:30:19.857Z,65.0
2017-06-24T01:30:35.472Z,64.9
2017-06-24T01:30:51.294Z,64.9
2017-06-24T01:31:06.793Z,64.9
2017-06-24T01:31:22.109Z,65.0
2017-06-24T01:31:37.911Z,65.1
2017-06-24T01:31:53.614Z,65.7
2017-06-24T01:32:09.221Z,64.9
2017-06-24T01:32:25.033Z,65.3
2017-06-24T01:32:40.536Z,65.6
2017-06-24T01:32:56.251Z,65.4
2017-06-24T01:33:11.670Z,64.9
2017-06-24T01:33:26.966Z,64.9
2017-06-24T01:33:42.601Z,65.0
2017-06-24T01:33:57.904Z,65.0
2017-06-24T01:34:13.703Z,65.0
2017-06-24T01:34:29.734Z,64.7
2017-06-24T01:34:45.331Z,65.1
2017-06-24T01:35:01.060Z,65.0
2017-06-24T01:35:16.766Z,65.2
2017-06-24T01:35:32.296Z,64.8
2017-06-24T01:35:47.989Z,65.0
2017-06-24T01:36:03.694Z,64.8
2017-06-24T01:36:19.501Z,64.5
2017-06-24T01:36:35.121Z,64.9
2017-06-24T01:36:50.734Z,64.9
2017-06-24T01:37:06.130Z,64.9
2017-06-24T01:37:21.440Z,64.9
2017-06-24T01:37:37.824Z,64.7
2017-06-24T01:37:53.523Z,65.2
2017-06-24T01:38:09.238Z,64.6
2017-06-24T01:38:24.751Z,64.8
2017-06-24T01:38:40.269Z,64.9
2017-06-24T01:38:55.989Z,64.7
2017-06-24T01:39:11.898Z,65.3
2017-06-24T01:39:27.715Z,64.9
2017-06-24T01:39:43.626Z,65.0
2017-06-24T01:39:59.235Z,64.9
2017-06-24T01:40:14.731Z,64.9
2017-06-24T01:40:30.136Z,64.9
2017-06-24T01:40:46.187Z,64.7
2017-06-24T01:41:01.494Z,64.7
2017-06-24T01:41:17.197Z,64.4
2017-06-24T01:41:32.396Z,64.7
2017-06-24T01:41:48.104Z,65.1
2017-06-24T01:42:03.426Z,64.9
2017-06-24T01:42:19.016Z,65.4
2017-06-24T01:42:34.413Z,64.6
2017-06-24T01:42:50.117Z,64.7
2017-06-24T01:43:06.358Z,64.7
2017-06-24T01:43:21.857Z,64.9
2017-06-24T01:43:37.263Z,64.7
2017-06-24T01:43:52.777Z,64.9
2017-06-24T01:44:08.101Z,64.9
2017-06-24T01:44:23.586Z,64.6
2017-06-24T01:44:39.300Z,64.6
2017-06-24T01:44:54.906Z,64.0
2017-06-24T01:45:10.513Z,64.1
2017-06-24T01:45:25.728Z,64.1
2017-06-24T01:45:41.333Z,63.9
2017-06-24T01:45:56.947Z,64.1
2017-06-24T01:46:12.561Z,64.2
2017-06-24T01:46:28.107Z,64.1
2017-06-24T01:46:43.727Z,64.1
2017-06-24T01:46:59.261Z,64.4
2017-06-24T01:47:14.848Z,64.3
2017-06-24T01:47:30.548Z,64.1
2017-06-24T01:47:46.059Z,64.1
2017-06-24T01:48:01.660Z,64.5
2017-06-24T01:48:17.278Z,64.5
2017-06-24T01:48:32.774Z,64.6
2017-06-24T01:48:48.579Z,63.9
2017-06-24T01:49:04.082Z,63.9
2017-06-24T01:49:19.485Z,64.6
2017-06-24T01:49:34.991Z,64.6
2017-06-24T01:49:50.697Z,64.3
2017-06-24T01:50:06.208Z,64.1
2017-06-24T01:50:21.509Z,64.3
2017-06-24T01:50:37.223Z,64.1
2017-06-24T01:50:53.029Z,64.1
2017-06-24T01:51:08.732Z,64.1
2017-06-24T01:51:24.451Z,64.1
2017-06-24T01:51:39.957Z,64.6
2017-06-24T01:51:55.470Z,64.5
2017-06-24T01:52:11.165Z,64.6
2017-06-24T01:52:26.463Z,64.5
2017-06-24T01:52:41.877Z,64.6
2017-06-24T01:52:57.382Z,64.4
2017-06-24T01:53:12.790Z,64.9
2017-06-24T01:53:28.318Z,64.9
2017-06-24T01:53:43.911Z,64.8
2017-06-24T01:53:59.214Z,64.9
2017-06-24T01:54:14.935Z,64.8
2017-06-24T01:54:30.437Z,64.9
2017-06-24T01:54:46.060Z,64.5
2017-06-24T01:55:01.771Z,64.6
2017-06-24T01:55:17.378Z,64.6
2017-06-24T01:55:32.797Z,64.5
2017-06-24T01:55:48.394Z,64.8
2017-06-24T01:56:03.893Z,65.0
2017-06-24T01:56:19.707Z,64.6
2017-06-24T01:56:35.016Z,64.3
2017-06-24T01:56:50.519Z,64.3
2017-06-24T01:57:06.024Z,64.6
2017-06-24T01:57:21.438Z,64.9
2017-06-24T01:57:36.963Z,64.6
2017-06-24T01:57:52.372Z,65.3
2017-06-24T01:58:07.785Z,64.9
2017-06-24T01:58:23.200Z,64.9
2017-06-24T01:58:39.004Z,65.0
2017-06-24T01:58:54.513Z,64.5
2017-06-24T01:59:10.120Z,64.6
2017-06-24T01:59:25.636Z,64.8
2017-06-24T01:59:41.439Z,65.0
2017-06-24T01:59:57.144Z,64.8
2017-06-24T02:00:12.750Z,64.7
2017-06-24T02:00:28.063Z,64.8
2017-06-24T02:00:43.660Z,64.6
2017-06-24T02:00:59.369Z,64.7
2017-06-24T02:01:15.097Z,64.5
2017-06-24T02:01:30.909Z,64.8
2017-06-24T02:01:46.615Z,64.7
2017-06-24T02:02:02.321Z,65.3
2017-06-24T02:02:17.827Z,64.9
2017-06-24T02:02:33.337Z,64.7
2017-06-24T02:02:48.942Z,65.0
2017-06-24T02:03:04.553Z,65.2
2017-06-24T02:03:19.779Z,65.0
2017-06-24T02:03:35.085Z,64.9
2017-06-24T02:03:50.498Z,64.7
2017-06-24T02:04:06.014Z,65.1
2017-06-24T02:04:21.700Z,64.9
2017-06-24T02:04:37.218Z,64.7
2017-06-24T02:04:52.664Z,65.1
2017-06-24T02:05:08.382Z,65.0
2017-06-24T02:05:23.912Z,64.9
2017-06-24T02:05:39.542Z,65.2
2017-06-24T02:05:54.960Z,64.9
2017-06-24T02:06:10.568Z,65.1
2017-06-24T02:06:26.454Z,64.9
2017-06-24T02:06:42.341Z,65.1
2017-06-24T02:06:57.693Z,64.6
2017-06-24T02:07:13.245Z,65.2
2017-06-24T02:07:29.084Z,64.7
2017-06-24T02:07:45.121Z,64.7
2017-06-24T02:08:01.146Z,65.0
2017-06-24T02:08:16.774Z,64.9
2017-06-24T02:08:32.722Z,65.2
2017-06-24T02:08:48.442Z,64.8
2017-06-24T02:09:04.173Z,64.9
2017-06-24T02:09:19.720Z,65.0
2017-06-24T02:09:35.344Z,65.1
2017-06-24T02:09:50.951Z,64.8
2017-06-24T02:10:06.663Z,64.8
2017-06-24T02:10:22.381Z,64.8
2017-06-24T02:10:37.732Z,64.9
2017-06-24T02:10:53.576Z,64.8
2017-06-24T02:11:09.117Z,64.7
2017-06-24T02:11:24.754Z,65.2
2017-06-24T02:11:40.275Z,65.2
2017-06-24T02:11:56.090Z,64.9
2017-06-24T02:12:11.915Z,65.2
2017-06-24T02:12:27.921Z,65.0
2017-06-24T02:12:43.550Z,65.0
2017-06-24T02:12:59.523Z,65.0
2017-06-24T02:13:15.259Z,65.0
2017-06-24T02:13:31.081Z,65.0
2017-06-24T02:13:46.391Z,65.0
2017-06-24T02:14:02.314Z,64.9
2017-06-24T02:14:17.845Z,65.0
2017-06-24T02:14:33.568Z,65.1
2017-06-24T02:14:49.179Z,65.1
2017-06-24T02:15:05.097Z,64.7
2017-06-24T02:15:20.893Z,64.9
2017-06-24T02:15:36.807Z,64.7
2017-06-24T02:15:52.505Z,65.3
2017-06-24T02:16:08.114Z,64.9
2017-06-24T02:16:24.059Z,64.7
2017-06-24T02:16:39.669Z,64.7
2017-06-24T02:16:55.185Z,64.8
2017-06-24T02:17:10.511Z,64.8
2017-06-24T02:17:26.013Z,64.8
2017-06-24T02:17:41.754Z,65.1
2017-06-24T02:17:57.386Z,65.4
2017-06-24T02:18:13.120Z,65.3
2017-06-24T02:18:28.654Z,65.0
2017-06-24T02:18:44.154Z,65.7
2017-06-24T02:18:59.665Z,65.5
2017-06-24T02:19:15.078Z,65.7
2017-06-24T02:19:30.444Z,65.9
2017-06-24T02:19:45.965Z,66.0
2017-06-24T02:20:01.588Z,65.8
2017-06-24T02:20:17.197Z,65.8
2017-06-24T02:20:32.925Z,65.8
2017-06-24T02:20:48.637Z,65.9
2017-06-24T02:21:04.571Z,66.0
2017-06-24T02:21:20.223Z,65.9
2017-06-24T02:21:35.770Z,66.1
2017-06-24T02:21:51.511Z,65.8
2017-06-24T02:22:07.346Z,65.8
2017-06-24T02:22:22.971Z,66.0
2017-06-24T02:22:38.572Z,66.1
2017-06-24T02:22:53.996Z,66.5
2017-06-24T02:23:09.613Z,66.3
2017-06-24T02:23:25.153Z,66.6
2017-06-24T02:23:40.796Z,66.5
2017-06-24T02:23:56.185Z,66.2
2017-06-24T02:24:11.754Z,66.4
2017-06-24T02:24:27.570Z,66.8
2017-06-24T02:24:43.023Z,66.7
2017-06-24T02:24:58.454Z,66.8
2017-06-24T02:25:13.957Z,66.3
2017-06-24T02:25:29.377Z,66.1
2017-06-24T02:25:45.594Z,66.2
2017-06-24T02:26:01.029Z,66.5
2017-06-24T02:26:16.373Z,66.6
2017-06-24T02:26:32.109Z,66.5
2017-06-24T02:26:47.961Z,66.7
2017-06-24T02:27:03.785Z,66.5
2017-06-24T02:27:19.399Z,66.9
2017-06-24T02:27:34.829Z,66.6
2017-06-24T02:27:50.559Z,66.5
2017-06-24T02:28:06.067Z,67.0
2017-06-24T02:28:21.694Z,66.5
2017-06-24T02:28:37.102Z,66.6
2017-06-24T02:28:52.641Z,66.6
2017-06-24T02:29:08.304Z,66.7
2017-06-24T02:29:23.657Z,66.6
2017-06-24T02:29:39.396Z,66.6
2017-06-24T02:29:55.245Z,66.4
2017-06-24T02:30:10.863Z,66.4
2017-06-24T02:30:26.505Z,66.6
2017-06-24T02:30:42.235Z,66.7
2017-06-24T02:30:57.864Z,66.3
2017-06-24T02:31:13.316Z,66.7
2017-06-24T02:31:28.961Z,66.8
2017-06-24T02:31:44.595Z,66.2
2017-06-24T02:32:00.220Z,66.1
2017-06-24T02:32:15.922Z,66.7
2017-06-24T02:32:31.762Z,66.8
2017-06-24T02:32:47.280Z,66.5
2017-06-24T02:33:02.582Z,66.5
2017-06-24T02:33:18.135Z,66.7
2017-06-24T02:33:33.750Z,66.2
2017-06-24T02:33:49.475Z,66.6
2017-06-24T02:34:04.992Z,66.6
2017-06-24T02:34:20.482Z,66.1
2017-06-24T02:34:36.199Z,66.7
2017-06-24T02:34:51.727Z,66.5
2017-06-24T02:35:07.443Z,66.4
2017-06-24T02:35:22.843Z,66.7
2017-06-24T02:35:38.439Z,67.2
2017-06-24T02:35:54.179Z,67.2
2017-06-24T02:36:09.777Z,67.0
2017-06-24T02:36:25.188Z,66.9
2017-06-24T02:36:41.042Z,66.5
2017-06-24T02:36:56.547Z,66.7
2017-06-24T02:37:12.167Z,66.7
2017-06-24T02:37:27.684Z,66.6
2017-06-24T02:37:43.398Z,66.6
2017-06-24T02:37:58.720Z,67.1
2017-06-24T02:38:14.151Z,67.0
2017-06-24T02:38:29.879Z,67.0
2017-06-24T02:38:45.397Z,66.7
2017-06-24T02:39:01.034Z,66.8
2017-06-24T02:39:16.583Z,66.5
2017-06-24T02:39:32.328Z,66.5
2017-06-24T02:39:47.770Z,66.7
2017-06-24T02:40:03.123Z,67.0
2017-06-24T02:40:18.967Z,67.0
2017-06-24T02:40:34.277Z,66.9
2017-06-24T02:40:50.126Z,67.2
2017-06-24T02:41:05.945Z,66.8
2017-06-24T02:41:21.760Z,66.6
2017-06-24T02:41:37.683Z,66.9
2017-06-24T02:41:53.195Z,66.5
2017-06-24T02:42:09.219Z,66.6
2017-06-24T02:42:24.534Z,66.5
2017-06-24T02:42:40.251Z,66.5
2017-06-24T02:42:55.656Z,66.5
2017-06-24T02:43:11.061Z,66.6
2017-06-24T02:43:26.364Z,67.1
2017-06-24T02:43:41.767Z,67.1
2017-06-24T02:43:57.180Z,67.2
2017-06-24T02:44:12.697Z,67.1
2017-06-24T02:44:28.500Z,67.1
2017-06-24T02:44:44.025Z,67.3
2017-06-24T02:44:59.530Z,67.1
2017-06-24T02:45:14.931Z,67.2
2017-06-24T02:45:30.566Z,67.1
2017-06-24T02:45:45.979Z,67.0
2017-06-24T02:46:01.389Z,66.9
2017-06-24T02:46:17.316Z,67.0
2017-06-24T02:46:32.822Z,67.2
2017-06-24T02:46:48.434Z,67.0
2017-06-24T02:47:03.853Z,67.2
2017-06-24T02:47:23.421Z,67.3
2017-06-24T02:47:39.061Z,67.1
2017-06-24T02:47:54.573Z,67.0
2017-06-24T02:48:10.094Z,67.2
2017-06-24T02:48:25.637Z,67.1
2017-06-24T02:48:41.439Z,67.2
2017-06-24T02:48:56.874Z,67.3
2017-06-24T02:49:12.600Z,67.1
2017-06-24T02:49:28.525Z,67.1
2017-06-24T02:49:44.151Z,67.0
2017-06-24T02:49:59.809Z,67.4
2017-06-24T02:50:16.861Z,67.4
2017-06-24T02:50:32.271Z,67.4
2017-06-24T02:50:47.873Z,67.4
2017-06-24T02:51:03.682Z,67.4
2017-06-24T02:51:19.291Z,67.2
2017-06-24T02:51:34.807Z,67.4
2017-06-24T02:51:50.540Z,67.4
2017-06-24T02:52:05.653Z,67.4
2017-06-24T02:52:21.157Z,67.4
2017-06-24T02:52:36.570Z,67.3
2017-06-24T02:52:52.274Z,67.4
2017-06-24T02:53:07.885Z,67.3
2017-06-24T02:53:23.500Z,67.2
2017-06-24T02:53:39.121Z,67.3
2017-06-24T02:53:54.637Z,67.4
2017-06-24T02:54:10.048Z,67.7
2017-06-24T02:54:25.750Z,67.7
2017-06-24T02:54:41.272Z,67.8
2017-06-24T02:54:56.813Z,67.6
2017-06-24T02:55:12.226Z,67.6
2017-06-24T02:55:27.652Z,67.8
2017-06-24T02:55:43.257Z,67.8
2017-06-24T02:55:58.865Z,67.8
2017-06-24T02:56:14.274Z,67.6
2017-06-24T02:56:29.833Z,67.9
2017-06-24T02:56:45.448Z,67.7
2017-06-24T02:57:00.767Z,67.6
2017-06-24T02:57:16.371Z,67.6
2017-06-24T02:57:32.088Z,67.8
2017-06-24T02:57:47.699Z,67.5
2017-06-24T02:58:03.236Z,68.0
2017-06-24T02:58:18.640Z,68.1
2017-06-24T02:58:34.256Z,68.3
2017-06-24T02:58:49.985Z,68.0
2017-06-24T02:59:05.290Z,68.4
2017-06-24T02:59:20.697Z,67.8
2017-06-24T02:59:36.052Z,68.1
2017-06-24T02:59:51.990Z,67.7
2017-06-24T03:00:07.826Z,68.0
2017-06-24T03:00:23.744Z,67.7
2017-06-24T03:00:39.361Z,67.9
2017-06-24T03:00:54.918Z,67.9
2017-06-24T03:01:10.419Z,68.0
2017-06-24T03:01:25.828Z,67.7
2017-06-24T03:01:41.757Z,67.6
2017-06-24T03:01:57.661Z,67.6
2017-06-24T03:02:13.072Z,67.8
2017-06-24T03:02:28.501Z,67.9
2017-06-24T03:02:44.212Z,67.5
2017-06-24T03:02:59.817Z,67.8
2017-06-24T03:03:15.321Z,67.8
2017-06-24T03:03:30.931Z,68.0
2017-06-24T03:03:46.337Z,67.9
2017-06-24T03:04:01.548Z,68.1
2017-06-24T03:04:17.273Z,68.5
2017-06-24T03:04:32.988Z,68.1
2017-06-24T03:04:48.588Z,68.4
2017-06-24T03:05:03.897Z,68.0
2017-06-24T03:05:19.600Z,68.0
2017-06-24T03:05:35.006Z,68.1
2017-06-24T03:05:50.615Z,67.9
2017-06-24T03:06:06.324Z,67.9
2017-06-24T03:06:22.035Z,67.7
2017-06-24T03:06:37.770Z,67.7
2017-06-24T03:06:53.371Z,67.9
2017-06-24T03:07:08.976Z,67.8
2017-06-24T03:07:24.278Z,67.8
2017-06-24T03:07:39.985Z,67.6
2017-06-24T03:07:55.494Z,67.6
2017-06-24T03:08:11.103Z,67.8
2017-06-24T03:08:26.899Z,68.0
2017-06-24T03:08:42.720Z,67.8
2017-06-24T03:08:58.447Z,68.1
2017-06-24T03:09:14.160Z,68.1
2017-06-24T03:09:29.895Z,67.9
2017-06-24T03:09:45.404Z,67.6
2017-06-24T03:10:01.022Z,67.8
2017-06-24T03:10:16.545Z,67.6
2017-06-24T03:10:36.104Z,67.4
2017-06-24T03:10:51.509Z,67.4
2017-06-24T03:11:07.120Z,67.4
2017-06-24T03:11:22.713Z,67.4
2017-06-24T03:11:38.822Z,67.4
2017-06-24T03:11:54.250Z,67.8
2017-06-24T03:12:09.562Z,67.8
2017-06-24T03:12:24.990Z,67.4
2017-06-24T03:12:40.399Z,67.7
2017-06-24T03:12:56.127Z,67.6
2017-06-24T03:13:11.732Z,67.9
2017-06-24T03:13:27.259Z,67.8
2017-06-24T03:13:43.221Z,68.0
2017-06-24T03:13:58.958Z,67.8
2017-06-24T03:14:14.510Z,67.9
2017-06-24T03:14:30.060Z,67.8
2017-06-24T03:14:45.616Z,67.8
2017-06-24T03:15:01.271Z,67.9
2017-06-24T03:15:17.001Z,67.9
2017-06-24T03:15:32.426Z,68.0
2017-06-24T03:15:48.041Z,68.1
2017-06-24T03:16:03.457Z,68.1
2017-06-24T03:16:19.165Z,67.9
2017-06-24T03:16:35.001Z,67.8
2017-06-24T03:16:50.594Z,68.3
2017-06-24T03:17:06.014Z,68.1
2017-06-24T03:17:21.514Z,68.1
2017-06-24T03:17:37.114Z,68.3
2017-06-24T03:17:52.522Z,68.2
2017-06-24T03:18:08.122Z,68.3
2017-06-24T03:18:23.528Z,68.2
2017-06-24T03:18:39.039Z,68.1
2017-06-24T03:18:54.550Z,68.4
2017-06-24T03:19:10.064Z,68.1
2017-06-24T03:19:25.793Z,68.4
2017-06-24T03:19:41.397Z,68.1
2017-06-24T03:19:56.903Z,68.1
2017-06-24T03:20:12.118Z,67.9
2017-06-24T03:20:27.639Z,68.1
2017-06-24T03:20:43.145Z,67.4
2017-06-24T03:20:58.349Z,67.9
2017-06-24T03:21:14.850Z,68.1
2017-06-24T03:21:30.169Z,68.1
2017-06-24T03:21:45.667Z,68.2
2017-06-24T03:22:01.084Z,68.2
2017-06-24T03:22:16.489Z,68.0
2017-06-24T03:22:31.897Z,68.2
2017-06-24T03:22:47.507Z,68.0
2017-06-24T03:23:03.008Z,67.6
2017-06-24T03:23:18.811Z,68.1
2017-06-24T03:23:34.218Z,68.2
2017-06-24T03:23:49.526Z,68.2
2017-06-24T03:24:05.131Z,68.4
2017-06-24T03:24:20.837Z,68.3
2017-06-24T03:24:36.440Z,68.1
2017-06-24T03:24:51.947Z,68.0
2017-06-24T03:25:07.607Z,68.2
2017-06-24T03:25:22.913Z,68.1
2017-06-24T03:25:38.619Z,68.2
2017-06-24T03:25:54.161Z,68.2
2017-06-24T03:26:09.696Z,68.0
2017-06-24T03:26:25.220Z,67.8
2017-06-24T03:26:41.054Z,68.0
2017-06-24T03:26:56.611Z,68.2
2017-06-24T03:27:12.266Z,68.1